sensor_id;sensor_type;location;lat;lon;timestamp;pressure;altitude;pressure_sealevel;temperature;humidity
42003;BME280;27693;50.506;30.832;2023-04-05T00:00:10;99593.73;;;3.04;100.00
42003;BME280;27693;50.506;30.832;2023-04-05T00:01:13;99577.34;;;3.10;100.00
42003;BME280;27693;50.506;30.832;2023-04-05T00:02:16;99581.56;;;3.14;100.00
42003;BME280;27693;50.506;30.832;2023-04-05T00:03:20;99580.70;;;3.13;100.00
42003;BME280;27693;50.506;30.832;2023-04-05T00:04:23;99578.17;;;3.12;100.00
42003;BME280;27693;50.506;30.832;2023-04-05T00:05:27;99577.34;;;3.11;100.00
42003;BME280;27693;50.506;30.832;2023-04-05T00:06:35;99578.97;;;3.15;100.00
42003;BME280;27693;50.506;30.832;2023-04-05T00:07:38;99576.79;;;2.92;100.00
42003;BME280;27693;50.506;30.832;2023-04-05T00:08:41;99584.50;;;2.92;100.00
42003;BME280;27693;50.506;30.832;2023-04-05T00:09:45;99580.23;;;2.91;100.00
42003;BME280;27693;50.506;30.832;2023-04-05T00:10:49;99577.73;;;2.88;100.00
42003;BME280;27693;50.506;30.832;2023-04-05T00:11:52;99576.76;;;2.94;100.00
42003;BME280;27693;50.506;30.832;2023-04-05T00:12:54;99573.63;;;2.75;100.00
42003;BME280;27693;50.506;30.832;2023-04-05T00:13:58;99566.62;;;2.86;100.00
42003;BME280;27693;50.506;30.832;2023-04-05T00:15:01;99567.31;;;2.96;100.00
42003;BME280;27693;50.506;30.832;2023-04-05T00:16:06;99560.65;;;2.84;100.00
42003;BME280;27693;50.506;30.832;2023-04-05T00:17:10;99566.66;;;2.83;100.00
42003;BME280;27693;50.506;30.832;2023-04-05T00:18:14;99563.11;;;2.90;100.00
42003;BME280;27693;50.506;30.832;2023-04-05T00:19:24;99567.34;;;2.94;100.00
42003;BME280;27693;50.506;30.832;2023-04-05T00:20:26;99567.20;;;3.02;100.00
42003;BME280;27693;50.506;30.832;2023-04-05T00:21:30;99572.34;;;3.02;100.00
42003;BME280;27693;50.506;30.832;2023-04-05T00:22:34;99568.91;;;3.03;100.00
42003;BME280;27693;50.506;30.832;2023-04-05T00:23:38;99561.12;;;3.08;100.00
42003;BME280;27693;50.506;30.832;2023-04-05T00:24:40;99567.16;;;3.05;100.00
42003;BME280;27693;50.506;30.832;2023-04-05T00:25:44;99569.63;;;3.10;100.00
42003;BME280;27693;50.506;30.832;2023-04-05T00:26:47;99570.53;;;3.07;100.00
42003;BME280;27693;50.506;30.832;2023-04-05T00:27:50;99563.80;;;3.00;100.00
42003;BME280;27693;50.506;30.832;2023-04-05T00:28:53;99561.34;;;2.94;100.00
42003;BME280;27693;50.506;30.832;2023-04-05T00:29:56;99561.30;;;2.95;100.00
42003;BME280;27693;50.506;30.832;2023-04-05T00:30:58;99564.70;;;2.97;100.00
42003;BME280;27693;50.506;30.832;2023-04-05T00:32:01;99570.71;;;2.98;100.00
42003;BME280;27693;50.506;30.832;2023-04-05T00:33:05;99564.59;;;3.03;100.00
42003;BME280;27693;50.506;30.832;2023-04-05T00:34:07;99566.41;;;2.98;100.00
42003;BME280;27693;50.506;30.832;2023-04-05T00:35:11;99566.44;;;2.95;100.00
42003;BME280;27693;50.506;30.832;2023-04-05T00:36:19;99564.70;;;2.97;100.00
42003;BME280;27693;50.506;30.832;2023-04-05T00:37:21;99564.88;;;2.88;100.00
42003;BME280;27693;50.506;30.832;2023-04-05T00:38:24;99565.64;;;2.93;100.00
42003;BME280;27693;50.506;30.832;2023-04-05T00:39:27;99553.59;;;2.97;100.00
42003;BME280;27693;50.506;30.832;2023-04-05T00:40:29;99560.58;;;2.88;100.00
42003;BME280;27693;50.506;30.832;2023-04-05T00:41:33;99563.08;;;2.93;100.00
42003;BME280;27693;50.506;30.832;2023-04-05T00:42:37;99561.30;;;2.95;100.00
42003;BME280;27693;50.506;30.832;2023-04-05T00:43:40;99561.30;;;2.95;100.00
42003;BME280;27693;50.506;30.832;2023-04-05T00:44:43;99557.17;;;2.86;100.00
42003;BME280;27693;50.506;30.832;2023-04-05T00:45:46;99556.27;;;2.89;100.00
42003;BME280;27693;50.506;30.832;2023-04-05T00:46:49;99559.67;;;2.91;100.00
42003;BME280;27693;50.506;30.832;2023-04-05T00:47:51;99557.11;;;2.91;100.00
42003;BME280;27693;50.506;30.832;2023-04-05T00:48:55;99557.83;;;2.99;100.00
42003;BME280;27693;50.506;30.832;2023-04-05T00:49:57;99557.83;;;2.99;100.00
42003;BME280;27693;50.506;30.832;2023-04-05T00:51:02;99556.12;;;2.98;100.00
42003;BME280;27693;50.506;30.832;2023-04-05T00:52:04;99549.25;;;3.00;100.00
42003;BME280;27693;50.506;30.832;2023-04-05T00:53:08;99551.82;;;2.99;100.00
42003;BME280;27693;50.506;30.832;2023-04-05T00:54:10;99550.87;;;3.04;100.00
42003;BME280;27693;50.506;30.832;2023-04-05T00:55:13;99542.41;;;2.99;100.00
42003;BME280;27693;50.506;30.832;2023-04-05T00:56:16;99547.66;;;2.93;100.00
42003;BME280;27693;50.506;30.832;2023-04-05T00:57:19;99546.83;;;2.91;100.00
42003;BME280;27693;50.506;30.832;2023-04-05T00:58:22;99540.73;;;2.97;100.00
42003;BME280;27693;50.506;30.832;2023-04-05T00:59:25;99539.80;;;3.01;100.00
42003;BME280;27693;50.506;30.832;2023-04-05T01:00:30;99535.64;;;2.94;100.00
42003;BME280;27693;50.506;30.832;2023-04-05T01:01:33;99542.45;;;2.96;100.00
42003;BME280;27693;50.506;30.832;2023-04-05T01:02:47;99533.03;;;2.95;100.00
42003;BME280;27693;50.506;30.832;2023-04-05T01:03:52;99530.75;;;2.80;100.00
42003;BME280;27693;50.506;30.832;2023-04-05T01:04:58;99527.20;;;2.87;100.00
42003;BME280;27693;50.506;30.832;2023-04-05T01:07:24;99532.38;;;2.84;100.00
42003;BME280;27693;50.506;30.832;2023-04-05T01:08:44;99527.31;;;2.81;100.00
42003;BME280;27693;50.506;30.832;2023-04-05T01:09:55;99527.25;;;2.84;100.00
42003;BME280;27693;50.506;30.832;2023-04-05T01:11:01;99528.95;;;2.85;100.00
42003;BME280;27693;50.506;30.832;2023-04-05T01:12:07;99522.00;;;2.90;100.00
42003;BME280;27693;50.506;30.832;2023-04-05T01:13:10;99530.68;;;2.84;100.00
42003;BME280;27693;50.506;30.832;2023-04-05T01:14:13;99520.48;;;2.80;100.00
42003;BME280;27693;50.506;30.832;2023-04-05T01:15:15;99518.78;;;2.79;100.00
42003;BME280;27693;50.506;30.832;2023-04-05T01:16:21;99520.41;;;2.83;100.00
42003;BME280;27693;50.506;30.832;2023-04-05T01:17:25;99504.87;;;2.89;100.00
42003;BME280;27693;50.506;30.832;2023-04-05T01:18:29;99510.09;;;2.86;100.00
42003;BME280;27693;50.506;30.832;2023-04-05T01:19:32;99499.81;;;2.86;100.00
42003;BME280;27693;50.506;30.832;2023-04-05T01:20:39;99508.35;;;2.88;100.00
42003;BME280;27693;50.506;30.832;2023-04-05T01:30:43;99515.27;;;2.83;100.00
42003;BME280;27693;50.506;30.832;2023-04-05T01:36:02;99515.95;;;2.94;100.00
42003;BME280;27693;50.506;30.832;2023-04-05T01:37:10;99518.41;;;3.00;100.00
42003;BME280;27693;50.506;30.832;2023-04-05T01:38:16;99511.49;;;3.02;100.00
42003;BME280;27693;50.506;30.832;2023-04-05T01:39:20;99514.97;;;3.01;100.00
42003;BME280;27693;50.506;30.832;2023-04-05T01:40:24;99506.50;;;2.95;100.00
42003;BME280;27693;50.506;30.832;2023-04-05T01:41:27;99517.54;;;3.00;100.00
42003;BME280;27693;50.506;30.832;2023-04-05T01:42:29;99512.32;;;3.04;100.00
42003;BME280;27693;50.506;30.832;2023-04-05T01:43:32;99513.03;;;3.13;100.00
42003;BME280;27693;50.506;30.832;2023-04-05T01:44:36;99504.45;;;3.14;100.00
42003;BME280;27693;50.506;30.832;2023-04-05T01:45:40;99503.63;;;3.12;100.00
42003;BME280;27693;50.506;30.832;2023-04-05T01:46:44;99501.09;;;3.10;100.00
42003;BME280;27693;50.506;30.832;2023-04-05T01:47:48;99504.45;;;3.14;100.00
42003;BME280;27693;50.506;30.832;2023-04-05T01:48:52;99495.87;;;3.15;100.00
42003;BME280;27693;50.506;30.832;2023-04-05T01:49:56;99497.61;;;3.13;100.00
42003;BME280;27693;50.506;30.832;2023-04-05T01:51:00;99502.87;;;3.07;100.00
42003;BME280;27693;50.506;30.832;2023-04-05T01:52:03;99509.94;;;2.94;100.00
42003;BME280;27693;50.506;30.832;2023-04-05T01:53:06;99506.42;;;2.99;100.00
42003;BME280;27693;50.506;30.832;2023-04-05T01:54:10;99491.13;;;2.93;100.00
42003;BME280;27693;50.506;30.832;2023-04-05T01:55:12;99497.96;;;2.94;100.00
42003;BME280;27693;50.506;30.832;2023-04-05T01:56:14;99499.59;;;2.98;100.00
42003;BME280;27693;50.506;30.832;2023-04-05T01:57:17;99494.45;;;2.98;100.00
42003;BME280;27693;50.506;30.832;2023-04-05T01:58:20;99483.26;;;3.01;100.00
42003;BME280;27693;50.506;30.832;2023-04-05T01:59:23;99493.61;;;2.98;100.00
42003;BME280;27693;50.506;30.832;2023-04-05T02:00:26;99487.61;;;2.97;100.00
42003;BME280;27693;50.506;30.832;2023-04-05T02:01:28;99489.34;;;2.95;100.00
42003;BME280;27693;50.506;30.832;2023-04-05T02:02:31;99488.47;;;2.98;100.00
42003;BME280;27693;50.506;30.832;2023-04-05T02:03:34;99491.80;;;3.03;100.00
42003;BME280;27693;50.506;30.832;2023-04-05T02:04:36;99504.49;;;3.11;100.00
42003;BME280;27693;50.506;30.832;2023-04-05T02:05:40;99497.61;;;3.13;100.00
42003;BME280;27693;50.506;30.832;2023-04-05T02:06:44;99489.07;;;3.11;100.00
42003;BME280;27693;50.506;30.832;2023-04-05T02:07:47;99481.35;;;3.12;100.00
42003;BME280;27693;50.506;30.832;2023-04-05T02:08:49;99478.78;;;3.11;100.00
42003;BME280;27693;50.506;30.832;2023-04-05T02:09:52;99479.66;;;3.10;100.00
42003;BME280;27693;50.506;30.832;2023-04-05T02:10:54;99475.51;;;3.02;100.00
42003;BME280;27693;50.506;30.832;2023-04-05T02:11:56;99479.78;;;3.03;100.00
42003;BME280;27693;50.506;30.832;2023-04-05T02:12:59;99479.81;;;3.02;100.00
42003;BME280;27693;50.506;30.832;2023-04-05T02:14:02;99472.19;;;2.97;100.00
42003;BME280;27693;50.506;30.832;2023-04-05T02:15:05;99473.84;;;3.01;100.00
42003;BME280;27693;50.506;30.832;2023-04-05T02:16:09;99473.88;;;2.98;100.00
42003;BME280;27693;50.506;30.832;2023-04-05T02:17:11;99466.92;;;3.03;100.00
42003;BME280;27693;50.506;30.832;2023-04-05T02:18:13;99473.69;;;3.09;100.00
42003;BME280;27693;50.506;30.832;2023-04-05T02:19:18;99474.44;;;3.14;100.00
42003;BME280;27693;50.506;30.832;2023-04-05T02:20:23;99477.17;;;3.07;100.00
42003;BME280;27693;50.506;30.832;2023-04-05T02:21:27;99477.17;;;3.07;100.00
42003;BME280;27693;50.506;30.832;2023-04-05T02:22:29;99478.31;;;2.92;100.00
42003;BME280;27693;50.506;30.832;2023-04-05T02:23:32;99472.22;;;2.96;100.00
42003;BME280;27693;50.506;30.832;2023-04-05T02:24:34;99476.41;;;3.01;100.00
42003;BME280;27693;50.506;30.832;2023-04-05T02:25:39;99474.52;;;3.11;100.00
42003;BME280;27693;50.506;30.832;2023-04-05T02:26:41;99470.16;;;3.15;100.00
42003;BME280;27693;50.506;30.832;2023-04-05T02:27:44;99466.69;;;3.16;100.00
42003;BME280;27693;50.506;30.832;2023-04-05T02:28:48;99458.97;;;3.17;100.00
42003;BME280;27693;50.506;30.832;2023-04-05T02:29:51;99456.52;;;3.11;100.00
42003;BME280;27693;50.506;30.832;2023-04-05T02:30:54;99458.18;;;3.14;100.00
42003;BME280;27693;50.506;30.832;2023-04-05T02:31:57;99467.59;;;3.15;100.00
42003;BME280;27693;50.506;30.832;2023-04-05T02:33:01;99460.80;;;3.11;100.00
42003;BME280;27693;50.506;30.832;2023-04-05T02:34:04;99463.32;;;3.14;100.00
42003;BME280;27693;50.506;30.832;2023-04-05T02:35:09;99455.48;;;3.20;100.00
42003;BME280;27693;50.506;30.832;2023-04-05T02:36:12;99463.12;;;3.23;100.00
42003;BME280;27693;50.506;30.832;2023-04-05T02:37:15;99468.25;;;3.25;100.00
42003;BME280;27693;50.506;30.832;2023-04-05T02:38:17;99466.64;;;3.19;100.00
42003;BME280;27693;50.506;30.832;2023-04-05T02:39:19;99458.05;;;3.20;100.00
42003;BME280;27693;50.506;30.832;2023-04-05T02:40:22;99458.14;;;3.15;100.00
42003;BME280;27693;50.506;30.832;2023-04-05T02:41:25;99456.52;;;3.10;100.00
42003;BME280;27693;50.506;30.832;2023-04-05T02:42:28;99454.86;;;3.09;100.00
42003;BME280;27693;50.506;30.832;2023-04-05T02:43:30;99456.52;;;3.10;100.00
42003;BME280;27693;50.506;30.832;2023-04-05T02:44:33;99454.78;;;3.12;100.00
42003;BME280;27693;50.506;30.832;2023-04-05T02:45:36;99451.50;;;3.03;100.00
42003;BME280;27693;50.506;30.832;2023-04-05T02:46:39;99453.16;;;3.08;100.00
42003;BME280;27693;50.506;30.832;2023-04-05T02:47:42;99457.39;;;3.10;100.00
42003;BME280;27693;50.506;30.832;2023-04-05T02:48:45;99454.86;;;3.09;100.00
42003;BME280;27693;50.506;30.832;2023-04-05T02:49:48;99448.89;;;3.07;100.00
42003;BME280;27693;50.506;30.832;2023-04-05T02:50:51;99457.18;;;3.21;100.00
42003;BME280;27693;50.506;30.832;2023-04-05T02:51:54;99449.30;;;3.29;100.00
42003;BME280;27693;50.506;30.832;2023-04-05T02:52:57;99448.52;;;3.25;100.00
42003;BME280;27693;50.506;30.832;2023-04-05T02:54:01;99445.25;;;3.17;100.00
42003;BME280;27693;50.506;30.832;2023-04-05T02:55:06;99430.83;;;3.10;100.00
42003;BME280;27693;50.506;30.832;2023-04-05T02:56:09;99424.11;;;3.02;100.00
42003;BME280;27693;50.506;30.832;2023-04-05T02:57:15;99422.45;;;3.00;100.00
42003;BME280;27693;50.506;30.832;2023-04-05T02:58:19;99424.06;;;3.06;100.00
42003;BME280;27693;50.506;30.832;2023-04-05T02:59:22;99426.68;;;3.02;100.00
42003;BME280;27693;50.506;30.832;2023-04-05T03:00:24;99420.79;;;2.97;100.00
42003;BME280;27693;50.506;30.832;2023-04-05T03:01:27;99417.39;;;2.95;100.00
42003;BME280;27693;50.506;30.832;2023-04-05T03:02:31;99420.91;;;2.91;100.00
42003;BME280;27693;50.506;30.832;2023-04-05T03:03:34;99438.86;;;2.94;100.00
42003;BME280;27693;50.506;30.832;2023-04-05T03:04:38;99438.86;;;2.94;100.00
42003;BME280;27693;50.506;30.832;2023-04-05T03:05:42;99441.42;;;2.94;100.00
42003;BME280;27693;50.506;30.832;2023-04-05T03:06:45;99434.47;;;2.99;100.00
42003;BME280;27693;50.506;30.832;2023-04-05T03:07:50;99445.45;;;3.06;100.00
42003;BME280;27693;50.506;30.832;2023-04-05T03:08:54;99439.44;;;3.09;100.00
42003;BME280;27693;50.506;30.832;2023-04-05T03:10:00;99434.34;;;3.06;100.00
42003;BME280;27693;50.506;30.832;2023-04-05T03:11:05;99443.05;;;2.98;100.00
42003;BME280;27693;50.506;30.832;2023-04-05T03:12:08;99432.64;;;3.04;100.00
42003;BME280;27693;50.506;30.832;2023-04-05T03:13:16;99432.64;;;3.04;100.00
42003;BME280;27693;50.506;30.832;2023-04-05T03:14:18;99431.02;;;3.00;100.00
42003;BME280;27693;50.506;30.832;2023-04-05T03:15:21;99428.54;;;2.96;100.00
42003;BME280;27693;50.506;30.832;2023-04-05T03:16:24;99427.63;;;2.98;100.00
42003;BME280;27693;50.506;30.832;2023-04-05T03:17:27;99430.98;;;3.02;100.00
42003;BME280;27693;50.506;30.832;2023-04-05T03:18:34;99428.38;;;3.03;100.00
42003;BME280;27693;50.506;30.832;2023-04-05T03:19:38;99423.23;;;3.03;100.00
42003;BME280;27693;50.506;30.832;2023-04-05T03:20:44;99426.67;;;3.04;100.00
42003;BME280;27693;50.506;30.832;2023-04-05T03:21:49;99416.31;;;3.07;100.00
42003;BME280;27693;50.506;30.832;2023-04-05T03:22:54;99424.89;;;3.06;100.00
42003;BME280;27693;50.506;30.832;2023-04-05T03:23:58;99426.59;;;3.07;100.00
42003;BME280;27693;50.506;30.832;2023-04-05T03:25:04;99430.83;;;3.10;100.00
42003;BME280;27693;50.506;30.832;2023-04-05T03:26:08;99429.20;;;3.06;100.00
42003;BME280;27693;50.506;30.832;2023-04-05T03:27:13;99438.53;;;3.10;100.00
42003;BME280;27693;50.506;30.832;2023-04-05T03:28:33;99426.62;;;3.06;100.00
42003;BME280;27693;50.506;30.832;2023-04-05T03:29:37;99424.81;;;3.11;100.00
42003;BME280;27693;50.506;30.832;2023-04-05T03:30:41;99425.80;;;3.05;100.00
42003;BME280;27693;50.506;30.832;2023-04-05T03:31:49;99431.89;;;2.99;100.00
42003;BME280;27693;50.506;30.832;2023-04-05T03:32:53;99433.55;;;3.02;100.00
42003;BME280;27693;50.506;30.832;2023-04-05T03:33:59;99436.09;;;3.03;100.00
42003;BME280;27693;50.506;30.832;2023-04-05T03:35:04;99429.33;;;2.99;100.00
42003;BME280;27693;50.506;30.832;2023-04-05T03:36:08;99437.86;;;3.01;100.00
42003;BME280;27693;50.506;30.832;2023-04-05T03:37:13;99439.48;;;3.06;100.00
42003;BME280;27693;50.506;30.832;2023-04-05T03:38:18;99435.13;;;3.09;100.00
42003;BME280;27693;50.506;30.832;2023-04-05T03:39:33;99433.30;;;3.14;100.00
42003;BME280;27693;50.506;30.832;2023-04-05T03:40:38;99446.08;;;3.19;100.00
42003;BME280;27693;50.506;30.832;2023-04-05T03:41:44;99439.23;;;3.18;100.00
42003;BME280;27693;50.506;30.832;2023-04-05T03:42:47;99434.05;;;3.21;100.00
42003;BME280;27693;50.506;30.832;2023-04-05T03:43:49;99434.84;;;3.23;100.00
42003;BME280;27693;50.506;30.832;2023-04-05T03:44:53;99432.39;;;3.17;100.00
42003;BME280;27693;50.506;30.832;2023-04-05T03:45:57;99430.70;;;3.16;100.00
42003;BME280;27693;50.506;30.832;2023-04-05T03:47:01;99431.69;;;3.10;100.00
42003;BME280;27693;50.506;30.832;2023-04-05T03:48:05;99434.22;;;3.12;100.00
42003;BME280;27693;50.506;30.832;2023-04-05T03:49:07;99435.97;;;3.10;100.00
42003;BME280;27693;50.506;30.832;2023-04-05T03:50:11;99444.83;;;2.95;100.00
42003;BME280;27693;50.506;30.832;2023-04-05T03:51:14;99444.91;;;2.90;100.00
42003;BME280;27693;50.506;30.832;2023-04-05T03:52:18;99441.47;;;2.91;100.00
42003;BME280;27693;50.506;30.832;2023-04-05T03:53:20;99434.55;;;2.95;100.00
42003;BME280;27693;50.506;30.832;2023-04-05T03:54:25;99444.70;;;3.01;100.00
42003;BME280;27693;50.506;30.832;2023-04-05T03:55:30;99445.53;;;3.03;100.00
42003;BME280;27693;50.506;30.832;2023-04-05T03:56:35;99449.77;;;3.06;100.00
42003;BME280;27693;50.506;30.832;2023-04-05T03:57:40;99443.09;;;2.95;100.00
42003;BME280;27693;50.506;30.832;2023-04-05T03:58:45;99443.09;;;2.95;100.00
42003;BME280;27693;50.506;30.832;2023-04-05T03:59:48;99447.28;;;3.01;100.00
42003;BME280;27693;50.506;30.832;2023-04-05T04:00:52;99450.00;;;2.93;100.00
42003;BME280;27693;50.506;30.832;2023-04-05T04:01:57;99444.83;;;2.95;100.00
42003;BME280;27693;50.506;30.832;2023-04-05T04:03:00;99451.75;;;2.91;100.00
42003;BME280;27693;50.506;30.832;2023-04-05T04:04:03;99447.56;;;2.85;100.00
42003;BME280;27693;50.506;30.832;2023-04-05T04:05:06;99465.34;;;2.96;100.00
42003;BME280;27693;50.506;30.832;2023-04-05T04:06:09;99450.84;;;2.94;100.00
42003;BME280;27693;50.506;30.832;2023-04-05T04:07:13;99444.75;;;2.99;100.00
42003;BME280;27693;50.506;30.832;2023-04-05T04:08:15;99448.30;;;2.92;100.00
42003;BME280;27693;50.506;30.832;2023-04-05T04:09:18;99454.31;;;2.91;100.00
42003;BME280;27693;50.506;30.832;2023-04-05T04:10:20;99450.13;;;2.87;100.00
42003;BME280;27693;50.506;30.832;2023-04-05T04:11:25;99460.28;;;2.93;100.00
42003;BME280;27693;50.506;30.832;2023-04-05T04:12:28;99458.59;;;2.92;100.00
42003;BME280;27693;50.506;30.832;2023-04-05T04:13:32;99453.56;;;2.86;100.00
42003;BME280;27693;50.506;30.832;2023-04-05T04:14:39;99445.85;;;2.86;100.00
42003;BME280;27693;50.506;30.832;2023-04-05T04:15:52;99442.50;;;2.82;100.00
42003;BME280;27693;50.506;30.832;2023-04-05T04:16:59;99450.00;;;2.93;100.00
42003;BME280;27693;50.506;30.832;2023-04-05T04:18:06;99446.48;;;2.97;100.00
42003;BME280;27693;50.506;30.832;2023-04-05T04:19:11;99445.61;;;2.98;100.00
42003;BME280;27693;50.506;30.832;2023-04-05T04:20:22;99442.26;;;2.95;100.00
42003;BME280;27693;50.506;30.832;2023-04-05T04:21:43;99444.79;;;2.96;100.00
42003;BME280;27693;50.506;30.832;2023-04-05T04:22:58;99445.97;;;2.78;100.00
42003;BME280;27693;50.506;30.832;2023-04-05T04:24:06;99447.83;;;2.71;100.00
42003;BME280;27693;50.506;30.832;2023-04-05T04:25:25;99449.38;;;2.80;100.00
42003;BME280;27693;50.506;30.832;2023-04-05T04:26:32;99439.02;;;2.85;100.00
42003;BME280;27693;50.506;30.832;2023-04-05T04:27:40;99432.94;;;2.89;100.00
42003;BME280;27693;50.506;30.832;2023-04-05T04:28:52;99433.88;;;2.85;100.00
42003;BME280;27693;50.506;30.832;2023-04-05T04:30:15;99427.00;;;2.85;100.00
42003;BME280;27693;50.506;30.832;2023-04-05T04:31:19;99431.98;;;2.95;100.00
42003;BME280;27693;50.506;30.832;2023-04-05T04:32:42;99434.59;;;2.93;100.00
42003;BME280;27693;50.506;30.832;2023-04-05T04:34:05;99435.30;;;3.00;100.00
42003;BME280;27693;50.506;30.832;2023-04-05T04:35:13;99433.05;;;2.83;100.00
42003;BME280;27693;50.506;30.832;2023-04-05T04:36:20;99436.41;;;2.88;100.00
42003;BME280;27693;50.506;30.832;2023-04-05T04:37:28;99429.61;;;2.84;100.00
42003;BME280;27693;50.506;30.832;2023-04-05T04:38:40;99432.81;;;2.95;100.00
42003;BME280;27693;50.506;30.832;2023-04-05T04:39:48;99428.50;;;2.97;100.00
42003;BME280;27693;50.506;30.832;2023-04-05T04:41:10;99432.77;;;2.98;100.00
42003;BME280;27693;50.506;30.832;2023-04-05T04:42:21;99432.72;;;3.01;100.00
42003;BME280;27693;50.506;30.832;2023-04-05T04:43:42;99437.91;;;2.98;100.00
42003;BME280;27693;50.506;30.832;2023-04-05T04:45:04;99431.94;;;2.96;100.00
42003;BME280;27693;50.506;30.832;2023-04-05T04:46:27;99430.24;;;2.95;100.00
42003;BME280;27693;50.506;30.832;2023-04-05T04:47:33;99429.33;;;2.99;100.00
42003;BME280;27693;50.506;30.832;2023-04-05T04:48:56;99424.23;;;2.96;100.00
42003;BME280;27693;50.506;30.832;2023-04-05T04:50:05;99424.31;;;2.93;100.00
42003;BME280;27693;50.506;30.832;2023-04-05T04:51:16;99424.84;;;3.09;100.00
42003;BME280;27693;50.506;30.832;2023-04-05T04:52:18;99426.84;;;2.95;100.00
42003;BME280;27693;50.506;30.832;2023-04-05T04:53:22;99423.31;;;3.00;100.00
42003;BME280;27693;50.506;30.832;2023-04-05T04:54:26;99426.75;;;2.99;100.00
42003;BME280;27693;50.506;30.832;2023-04-05T04:55:30;99422.48;;;2.98;100.00
42003;BME280;27693;50.506;30.832;2023-04-05T04:56:34;99419.05;;;2.99;100.00
42003;BME280;27693;50.506;30.832;2023-04-05T04:57:36;99425.88;;;3.00;100.00
42003;BME280;27693;50.506;30.832;2023-04-05T04:58:39;99430.98;;;3.02;100.00
42003;BME280;27693;50.506;30.832;2023-04-05T04:59:43;99427.67;;;2.95;100.00
42003;BME280;27693;50.506;30.832;2023-04-05T05:00:45;99424.97;;;3.03;100.00
42003;BME280;27693;50.506;30.832;2023-04-05T05:01:49;99429.12;;;3.10;100.00
42003;BME280;27693;50.506;30.832;2023-04-05T05:02:51;99413.66;;;3.12;100.00
42003;BME280;27693;50.506;30.832;2023-04-05T05:03:54;99423.90;;;3.13;100.00
42003;BME280;27693;50.506;30.832;2023-04-05T05:05:02;99429.03;;;3.15;100.00
42003;BME280;27693;50.506;30.832;2023-04-05T05:06:07;99432.39;;;3.17;100.00
42003;BME280;27693;50.506;30.832;2023-04-05T05:07:10;99432.39;;;3.17;100.00
42003;BME280;27693;50.506;30.832;2023-04-05T05:08:13;99425.55;;;3.16;100.00
42003;BME280;27693;50.506;30.832;2023-04-05T05:09:16;99430.77;;;3.13;100.00
42003;BME280;27693;50.506;30.832;2023-04-05T05:10:21;99428.17;;;3.14;100.00
42003;BME280;27693;50.506;30.832;2023-04-05T05:11:23;99433.27;;;3.16;100.00
42003;BME280;27693;50.506;30.832;2023-04-05T05:12:25;99434.17;;;3.15;100.00
42003;BME280;27693;50.506;30.832;2023-04-05T05:13:28;99435.79;;;3.19;100.00
42003;BME280;27693;50.506;30.832;2023-04-05T05:14:30;99435.79;;;3.19;100.00
42003;BME280;27693;50.506;30.832;2023-04-05T05:15:33;99427.25;;;3.18;100.00
42003;BME280;27693;50.506;30.832;2023-04-05T05:16:37;99430.65;;;3.19;100.00
42003;BME280;27693;50.506;30.832;2023-04-05T05:17:40;99424.89;;;3.08;100.00
42003;BME280;27693;50.506;30.832;2023-04-05T05:18:42;99428.12;;;3.17;100.00
42003;BME280;27693;50.506;30.832;2023-04-05T05:19:46;99427.25;;;3.17;100.00
42003;BME280;27693;50.506;30.832;2023-04-05T05:20:51;99432.47;;;3.14;100.00
42003;BME280;27693;50.506;30.832;2023-04-05T05:21:54;99430.65;;;3.19;100.00
42003;BME280;27693;50.506;30.832;2023-04-05T05:22:57;99432.34;;;3.20;100.00
42003;BME280;27693;50.506;30.832;2023-04-05T05:24:03;99432.34;;;3.20;100.00
42003;BME280;27693;50.506;30.832;2023-04-05T05:25:07;99425.55;;;3.16;100.00
42003;BME280;27693;50.506;30.832;2023-04-05T05:26:12;99428.13;;;3.16;100.00
42003;BME280;27693;50.506;30.832;2023-04-05T05:27:15;99431.47;;;3.21;100.00
42003;BME280;27693;50.506;30.832;2023-04-05T05:28:18;99427.25;;;3.18;100.00
42003;BME280;27693;50.506;30.832;2023-04-05T05:29:20;99429.83;;;3.17;100.00
42003;BME280;27693;50.506;30.832;2023-04-05T05:30:24;99415.39;;;3.11;100.00
42003;BME280;27693;50.506;30.832;2023-04-05T05:31:28;99426.38;;;3.18;100.00
42003;BME280;27693;50.506;30.832;2023-04-05T05:32:30;99413.95;;;2.96;100.00
42003;BME280;27693;50.506;30.832;2023-04-05T05:33:33;99419.83;;;3.03;100.00
42003;BME280;27693;50.506;30.832;2023-04-05T05:34:35;99425.72;;;3.08;100.00
42003;BME280;27693;50.506;30.832;2023-04-05T05:35:38;99423.06;;;3.13;100.00
42003;BME280;27693;50.506;30.832;2023-04-05T05:36:42;99418.75;;;3.15;100.00
42003;BME280;27693;50.506;30.832;2023-04-05T05:37:44;99422.89;;;3.22;100.00
42003;BME280;27693;50.506;30.832;2023-04-05T05:38:47;99425.38;;;3.25;100.00
42003;BME280;27693;50.506;30.832;2023-04-05T05:39:50;99427.38;;;3.11;100.00
42003;BME280;27693;50.506;30.832;2023-04-05T05:40:56;99422.98;;;3.16;100.00
42003;BME280;27693;50.506;30.832;2023-04-05T05:41:59;99427.25;;;3.17;100.00
42003;BME280;27693;50.506;30.832;2023-04-05T05:43:02;99426.30;;;3.23;100.00
42003;BME280;27693;50.506;30.832;2023-04-05T05:44:05;99423.02;;;3.14;100.00
42003;BME280;27693;50.506;30.832;2023-04-05T05:45:09;99425.51;;;3.19;100.00
42003;BME280;27693;50.506;30.832;2023-04-05T05:46:12;99431.48;;;3.19;100.00
42003;BME280;27693;50.506;30.832;2023-04-05T05:47:15;99436.58;;;3.23;100.00
42003;BME280;27693;50.506;30.832;2023-04-05T05:48:17;99439.06;;;3.27;100.00
42003;BME280;27693;50.506;30.832;2023-04-05T05:49:20;99438.98;;;3.30;100.00
42003;BME280;27693;50.506;30.832;2023-04-05T05:50:23;99427.86;;;3.30;100.00
42003;BME280;27693;50.506;30.832;2023-04-05T05:51:26;99426.95;;;3.32;100.00
42003;BME280;27693;50.506;30.832;2023-04-05T05:52:28;99426.24;;;3.26;100.00